createdAt,value
2023-01-05T00:01:42.335Z,1.00
2023-01-05T00:04:11.433Z,0.90
2023-01-05T00:06:42.274Z,0.93
2023-01-05T00:09:14.369Z,1.20
2023-01-05T00:12:00.722Z,1.10
2023-01-05T00:14:49.450Z,1.10
2023-01-05T00:17:37.927Z,1.10
2023-01-05T00:20:29.341Z,0.90
2023-01-05T00:22:59.455Z,0.70
2023-01-05T00:25:30.247Z,0.80
2023-01-05T00:27:59.196Z,0.73
2023-01-05T00:30:30.735Z,0.80
2023-01-05T00:32:59.460Z,1.00
2023-01-05T00:35:30.441Z,0.80
2023-01-05T00:38:00.471Z,1.00
2023-01-05T00:40:29.563Z,0.97
2023-01-05T00:42:58.540Z,0.80
2023-01-05T00:45:27.546Z,0.90
2023-01-05T00:47:56.220Z,1.00
2023-01-05T00:50:25.341Z,1.00
2023-01-05T00:52:54.060Z,0.90
2023-01-05T00:55:24.260Z,1.00
2023-01-05T00:57:52.956Z,0.97
2023-01-05T01:00:22.229Z,0.97
2023-01-05T01:02:53.567Z,1.33
2023-01-05T01:05:22.420Z,1.10
2023-01-05T01:07:51.110Z,1.03
2023-01-05T01:10:19.942Z,1.10
2023-01-05T01:12:49.985Z,1.10
2023-01-05T01:15:19.576Z,1.10
2023-01-05T01:17:48.300Z,1.00
2023-01-05T01:20:16.999Z,1.00
2023-01-05T01:22:45.715Z,1.00
2023-01-05T01:25:14.346Z,1.00
2023-01-05T01:27:43.058Z,1.00
2023-01-05T01:30:14.231Z,1.00
2023-01-05T01:32:42.883Z,0.90
2023-01-05T01:35:11.784Z,0.80
2023-01-05T01:37:40.627Z,0.93
2023-01-05T01:40:11.440Z,0.97
2023-01-05T01:42:41.364Z,1.00
2023-01-05T01:45:20.398Z,0.80
2023-01-05T01:47:53.617Z,0.90
2023-01-05T01:50:28.247Z,0.80
2023-01-05T01:53:01.467Z,0.80
2023-01-05T01:55:31.599Z,0.80
2023-01-05T01:58:01.656Z,1.00
2023-01-05T02:00:31.786Z,0.77
2023-01-05T02:03:00.910Z,0.80
2023-01-05T02:05:33.355Z,0.70
2023-01-05T02:08:02.089Z,0.63
2023-01-05T02:10:58.585Z,0.83
2023-01-05T02:14:06.483Z,0.90
2023-01-05T02:16:48.303Z,0.70
2023-01-05T02:20:09.444Z,0.83
2023-01-05T02:23:33.381Z,0.60
2023-01-05T02:26:56.172Z,0.60
2023-01-05T02:30:10.288Z,0.60
2023-01-05T02:32:48.979Z,0.70
2023-01-05T02:35:30.655Z,0.80
2023-01-05T02:38:10.520Z,0.50
2023-01-05T02:40:46.647Z,0.60
2023-01-05T02:43:20.718Z,0.77
2023-01-05T02:45:50.344Z,0.70
2023-01-05T02:48:20.394Z,0.60
2023-01-05T02:50:57.595Z,0.70
2023-01-05T02:53:31.752Z,0.60
2023-01-05T02:56:05.664Z,0.60
2023-01-05T02:58:42.677Z,0.70
2023-01-05T03:01:20.084Z,0.80
2023-01-05T03:03:59.503Z,0.77
2023-01-05T03:06:34.638Z,0.60
2023-01-05T03:09:07.730Z,0.60
2023-01-05T03:12:02.949Z,0.60
2023-01-05T03:14:38.761Z,0.50
2023-01-05T03:17:12.822Z,0.80
2023-01-05T03:19:49.938Z,0.60
2023-01-05T03:22:40.617Z,0.57
2023-01-05T03:25:30.497Z,0.90
2023-01-05T03:28:21.078Z,0.90
2023-01-05T03:31:15.673Z,1.13
2023-01-05T03:34:09.763Z,1.00
2023-01-05T03:36:50.650Z,1.00
2023-01-05T03:39:26.533Z,1.10
2023-01-05T03:41:56.463Z,0.97
2023-01-05T03:44:25.486Z,1.20
2023-01-05T03:46:55.232Z,1.10
2023-01-05T03:49:23.980Z,1.10
2023-01-05T03:51:54.479Z,0.90
2023-01-05T03:54:23.882Z,1.00
2023-01-05T03:56:54.367Z,0.83
2023-01-05T03:59:23.082Z,1.20
2023-01-05T04:01:53.291Z,1.07
2023-01-05T04:04:22.105Z,1.57
2023-01-05T04:06:50.777Z,1.70
2023-01-05T04:09:21.297Z,1.70
2023-01-05T04:11:50.086Z,2.00
2023-01-05T04:14:18.747Z,1.47
2023-01-05T04:16:47.399Z,1.50
2023-01-05T04:19:21.426Z,1.67
2023-01-05T04:21:53.423Z,1.50
2023-01-05T04:24:25.707Z,1.10
2023-01-05T04:26:54.373Z,1.77
2023-01-05T04:29:27.056Z,1.20
2023-01-05T04:31:56.861Z,1.40
2023-01-05T04:34:26.004Z,1.37
2023-01-05T04:36:57.487Z,1.53
2023-01-05T04:39:28.179Z,1.67
2023-01-05T04:41:58.885Z,1.63
2023-01-05T04:44:27.776Z,1.50
2023-01-05T04:46:58.015Z,1.70
2023-01-05T04:49:26.798Z,1.60
2023-01-05T04:51:55.506Z,1.60
2023-01-05T04:54:25.361Z,1.77
2023-01-05T04:56:56.021Z,1.80
2023-01-05T04:59:25.631Z,1.90
2023-01-05T05:01:56.003Z,1.80
2023-01-05T05:04:24.908Z,1.67
2023-01-05T05:06:54.171Z,1.83
2023-01-05T05:09:26.612Z,1.83
2023-01-05T05:11:57.431Z,2.07
2023-01-05T05:14:26.112Z,2.10
2023-01-05T05:16:57.988Z,2.50
2023-01-05T05:19:26.660Z,2.07
2023-01-05T05:21:55.621Z,2.10
2023-01-05T05:24:26.808Z,2.13
2023-01-05T05:26:57.601Z,2.20
2023-01-05T05:29:26.556Z,2.17
2023-01-05T05:31:55.174Z,2.67
2023-01-05T05:34:24.050Z,2.60
2023-01-05T05:36:52.791Z,2.10
2023-01-05T05:39:21.487Z,2.30
2023-01-05T05:41:50.123Z,1.80
2023-01-05T05:44:20.319Z,2.10
2023-01-05T05:46:48.957Z,2.30
2023-01-05T05:49:17.750Z,2.20
2023-01-05T05:51:46.350Z,2.10
2023-01-05T05:54:15.023Z,2.03
2023-01-05T05:56:43.643Z,2.13
2023-01-05T05:59:12.291Z,2.00
2023-01-05T06:01:42.533Z,2.00
2023-01-05T06:04:11.729Z,2.23
2023-01-05T06:06:40.649Z,1.90
2023-01-05T06:09:09.319Z,2.30
2023-01-05T06:11:37.998Z,2.37
2023-01-05T06:14:07.795Z,2.23
2023-01-05T06:16:36.745Z,2.00
2023-01-05T06:19:07.553Z,2.70
2023-01-05T06:21:36.289Z,1.93
2023-01-05T06:24:05.278Z,2.17
2023-01-05T06:26:33.929Z,2.60
2023-01-05T06:29:02.610Z,1.80
2023-01-05T06:31:31.330Z,2.20
2023-01-05T06:34:00.034Z,2.30
2023-01-05T06:36:30.048Z,2.17
2023-01-05T06:38:58.609Z,2.77
2023-01-05T06:41:27.245Z,1.97
2023-01-05T06:43:55.881Z,2.07
2023-01-05T06:46:24.682Z,2.50
2023-01-05T06:48:53.367Z,1.90
2023-01-05T06:51:22.023Z,2.07
2023-01-05T06:53:52.100Z,2.50
2023-01-05T06:56:20.802Z,2.63
2023-01-05T06:58:49.436Z,2.60
2023-01-05T07:01:18.168Z,2.27
2023-01-05T07:03:47.019Z,2.40
2023-01-05T07:06:17.059Z,2.53
2023-01-05T07:08:45.727Z,2.43
2023-01-05T07:11:15.815Z,2.27
2023-01-05T07:13:48.649Z,3.03
2023-01-05T07:16:17.651Z,3.23
2023-01-05T07:18:46.424Z,4.10
2023-01-05T07:21:15.169Z,5.97
2023-01-05T07:23:43.885Z,4.87
2023-01-05T07:26:12.634Z,5.70
2023-01-05T07:28:42.824Z,4.67
2023-01-05T07:31:11.498Z,3.67
2023-01-05T07:33:40.515Z,3.20
2023-01-05T07:36:10.160Z,2.63
2023-01-05T07:38:38.850Z,3.57
2023-01-05T07:41:07.959Z,4.77
2023-01-05T07:43:36.914Z,3.30
2023-01-05T07:46:07.306Z,2.87
2023-01-05T07:48:36.078Z,3.10
2023-01-05T07:51:06.162Z,2.50
2023-01-05T07:53:43.960Z,2.53
2023-01-05T07:56:14.518Z,2.73
2023-01-05T07:58:43.665Z,2.60
2023-01-05T08:01:17.823Z,3.00
2023-01-05T08:03:46.807Z,2.53
2023-01-05T08:06:18.379Z,3.00
2023-01-05T08:08:47.746Z,2.67
2023-01-05T08:11:19.776Z,2.50
2023-01-05T08:14:00.700Z,2.80
2023-01-05T08:16:33.003Z,2.67
2023-01-05T08:19:04.199Z,2.93
2023-01-05T08:21:35.100Z,2.17
2023-01-05T08:24:03.821Z,2.70
2023-01-05T08:26:32.592Z,2.83
2023-01-05T08:29:01.467Z,2.40
2023-01-05T08:31:37.313Z,3.00
2023-01-05T08:34:06.949Z,2.43
2023-01-05T08:36:35.704Z,2.70
2023-01-05T08:39:05.512Z,2.73
2023-01-05T08:41:36.858Z,3.20
2023-01-05T08:44:09.060Z,2.70
2023-01-05T08:46:39.218Z,2.70
2023-01-05T08:49:09.744Z,2.50
2023-01-05T08:51:45.404Z,2.67
2023-01-05T08:54:17.564Z,2.50
2023-01-05T08:56:46.207Z,2.77
2023-01-05T08:59:15.361Z,2.40
2023-01-05T09:01:45.535Z,2.67
2023-01-05T09:04:14.348Z,2.30
2023-01-05T09:06:43.033Z,2.80
2023-01-05T09:09:11.761Z,2.60
2023-01-05T09:11:41.641Z,2.50
2023-01-05T09:14:15.575Z,2.50
2023-01-05T09:19:34.310Z,2.47
2023-01-05T09:22:03.009Z,2.27
2023-01-05T09:24:31.684Z,2.60
2023-01-05T09:27:00.365Z,2.50
2023-01-05T09:29:28.994Z,2.33
2023-01-05T09:31:59.068Z,2.37
2023-01-05T09:34:31.748Z,2.80
2023-01-05T09:37:00.661Z,2.73
2023-01-05T09:39:29.298Z,2.80
2023-01-05T09:42:03.105Z,3.00
2023-01-05T09:44:36.427Z,3.23
2023-01-05T09:47:17.202Z,3.93
2023-01-05T09:49:49.168Z,4.30
2023-01-05T09:52:23.118Z,3.50
2023-01-05T09:54:51.877Z,2.83
2023-01-05T09:57:24.030Z,2.83
2023-01-05T09:59:55.538Z,2.93
2023-01-05T10:02:35.028Z,3.10
2023-01-05T10:05:06.138Z,3.37
2023-01-05T10:07:43.863Z,2.87
2023-01-05T10:10:30.876Z,3.20
2023-01-05T10:13:03.557Z,2.60
2023-01-05T10:15:40.145Z,2.97
2023-01-05T10:18:17.686Z,3.20
2023-01-05T10:21:03.007Z,3.00
2023-01-05T10:23:50.906Z,3.37
2023-01-05T10:26:26.445Z,3.00
2023-01-05T10:29:03.692Z,2.83
2023-01-05T10:31:46.298Z,2.63
2023-01-05T10:34:24.484Z,2.80
2023-01-05T10:37:10.480Z,2.90
2023-01-05T10:40:12.378Z,3.30
2023-01-05T10:42:52.459Z,2.60
2023-01-05T10:45:22.646Z,2.67
2023-01-05T10:47:52.043Z,3.70
2023-01-05T10:50:37.281Z,3.27
2023-01-05T10:53:14.630Z,3.30
2023-01-05T10:56:00.408Z,2.93
2023-01-05T10:58:31.263Z,3.17
2023-01-05T11:01:04.048Z,3.13
2023-01-05T11:04:23.784Z,3.23
2023-01-05T11:06:34.342Z,2.67
2023-01-05T11:09:22.058Z,2.77
2023-01-05T11:11:56.165Z,2.67
2023-01-05T11:14:25.611Z,3.37
2023-01-05T11:17:01.400Z,3.27
2023-01-05T11:19:32.978Z,3.47
2023-01-05T11:22:03.183Z,2.80
2023-01-05T11:24:34.541Z,3.33
2023-01-05T11:27:05.746Z,2.70
2023-01-05T11:29:34.475Z,3.23
2023-01-05T11:32:05.998Z,2.87
2023-01-05T11:34:39.902Z,3.37
2023-01-05T11:37:26.018Z,3.30
2023-01-05T11:39:57.861Z,3.07
2023-01-05T11:42:34.822Z,3.27
2023-01-05T11:45:08.115Z,3.50
2023-01-05T11:47:44.401Z,3.40
2023-01-05T11:50:24.861Z,3.53
2023-01-05T11:52:56.549Z,3.07
2023-01-05T11:55:38.296Z,3.03
2023-01-05T11:58:26.607Z,2.80
2023-01-05T12:01:38.943Z,2.80
2023-01-05T12:05:00.661Z,2.50
2023-01-05T12:07:34.741Z,2.80
2023-01-05T12:10:28.175Z,3.00
2023-01-05T12:13:08.933Z,2.87
2023-01-05T12:16:02.247Z,2.63
2023-01-05T12:18:58.991Z,2.70
2023-01-05T12:21:31.671Z,3.03
2023-01-05T12:24:53.175Z,2.50
2023-01-05T12:27:43.115Z,2.70
2023-01-05T12:32:19.691Z,3.20
2023-01-05T12:36:50.200Z,2.37
2023-01-05T12:40:02.571Z,2.90
2023-01-05T12:42:54.161Z,2.93
2023-01-05T12:45:58.961Z,2.97
2023-01-05T12:48:33.458Z,2.70
2023-01-05T12:51:12.015Z,2.63
2023-01-05T12:53:51.870Z,2.70
2023-01-05T12:56:27.283Z,2.40
2023-01-05T12:59:13.752Z,2.97
2023-01-05T13:01:47.753Z,2.93
2023-01-05T13:04:46.259Z,2.60
2023-01-05T13:07:24.207Z,2.77
2023-01-05T13:10:02.674Z,3.00
2023-01-05T13:12:33.777Z,2.67
2023-01-05T13:15:18.167Z,2.90
2023-01-05T13:17:50.416Z,3.23
2023-01-05T13:20:36.644Z,3.43
2023-01-05T13:23:13.173Z,2.83
2023-01-05T13:25:51.802Z,3.00
2023-01-05T13:28:23.668Z,3.17
2023-01-05T13:31:23.019Z,2.83
2023-01-05T13:34:50.391Z,2.70
2023-01-05T13:37:53.315Z,3.37
2023-01-05T13:40:46.040Z,3.10
2023-01-05T13:43:41.327Z,3.63
2023-01-05T13:46:31.387Z,5.07
2023-01-05T13:50:02.476Z,4.33
2023-01-05T13:52:50.045Z,3.50
2023-01-05T13:55:26.296Z,3.80
2023-01-05T13:57:56.656Z,3.80
2023-01-05T14:00:30.605Z,3.43
2023-01-05T14:03:07.880Z,4.17
2023-01-05T14:05:50.533Z,3.67
2023-01-05T14:08:25.917Z,3.60
2023-01-05T14:11:15.088Z,3.07
2023-01-05T14:13:52.209Z,3.90
2023-01-05T14:16:53.951Z,3.87
2023-01-05T14:19:51.785Z,3.83
2023-01-05T14:22:38.513Z,4.00
2023-01-05T14:25:48.118Z,4.20
2023-01-05T14:28:43.745Z,4.10
2023-01-05T14:31:49.514Z,3.70
2023-01-05T14:34:21.678Z,3.97
2023-01-05T14:37:06.780Z,3.37
2023-01-05T14:39:45.804Z,5.03
2023-01-05T14:42:30.081Z,3.70
2023-01-05T14:45:06.809Z,3.13
2023-01-05T14:47:41.065Z,3.43
2023-01-05T14:50:30.145Z,3.47
2023-01-05T14:53:04.440Z,3.70
2023-01-05T14:55:39.568Z,3.17
2023-01-05T14:58:14.908Z,3.60
2023-01-05T15:00:57.916Z,3.63
2023-01-05T15:03:37.768Z,4.17
2023-01-05T15:06:10.722Z,4.27
2023-01-05T15:09:29.157Z,3.47
2023-01-05T15:12:27.229Z,3.87
2023-01-05T15:15:36.414Z,4.20
2023-01-05T15:18:44.454Z,3.60
2023-01-05T15:21:37.518Z,3.70
2023-01-05T15:24:57.691Z,3.10
2023-01-05T15:27:59.317Z,3.40
2023-01-05T15:30:58.048Z,3.10
2023-01-05T15:33:37.077Z,3.07
2023-01-05T15:36:07.760Z,3.33
2023-01-05T15:38:47.452Z,3.27
2023-01-05T15:41:21.555Z,2.67
2023-01-05T15:43:51.623Z,3.07
2023-01-05T15:46:23.307Z,4.47
2023-01-05T15:48:55.064Z,3.87
2023-01-05T15:51:25.893Z,4.70
2023-01-05T15:53:57.163Z,6.83
2023-01-05T15:56:32.621Z,5.53
2023-01-05T15:59:02.779Z,9.17
2023-01-05T16:01:31.512Z,7.77
2023-01-05T16:04:09.807Z,7.30
2023-01-05T16:06:40.956Z,9.37
2023-01-05T16:09:15.577Z,8.17
2023-01-05T16:11:48.246Z,6.50
2023-01-05T16:14:22.570Z,5.90
2023-01-05T16:16:55.507Z,7.53
2023-01-05T16:19:31.056Z,7.20
2023-01-05T16:22:08.145Z,6.30
2023-01-05T16:24:44.481Z,5.70
2023-01-05T16:27:16.083Z,5.10
2023-01-05T16:29:47.192Z,9.07
2023-01-05T16:32:32.522Z,9.10
2023-01-05T16:35:25.794Z,7.70
2023-01-05T16:38:29.198Z,7.60
2023-01-05T16:41:13.980Z,8.40
2023-01-05T16:43:50.758Z,6.77
2023-01-05T16:46:36.641Z,6.07
2023-01-05T16:49:29.596Z,5.53
2023-01-05T16:51:59.787Z,5.20
2023-01-05T16:54:37.120Z,5.47
2023-01-05T16:57:44.928Z,5.17
2023-01-05T17:00:38.348Z,4.67
2023-01-05T17:03:30.935Z,4.90
2023-01-05T17:06:01.811Z,4.47
2023-01-05T17:08:35.929Z,3.87
2023-01-05T17:11:13.211Z,4.57
2023-01-05T17:13:46.033Z,4.60
2023-01-05T17:16:18.337Z,5.03
2023-01-05T17:18:47.890Z,6.47
2023-01-05T17:21:20.944Z,6.13
2023-01-05T17:23:52.203Z,5.40
2023-01-05T17:26:26.499Z,4.43
2023-01-05T17:28:59.524Z,4.73
2023-01-05T17:31:29.720Z,4.80
2023-01-05T17:33:58.592Z,5.03
2023-01-05T17:36:31.467Z,5.27
2023-01-05T17:39:03.578Z,4.30
2023-01-05T17:41:32.766Z,3.67
2023-01-05T17:44:01.402Z,3.90
2023-01-05T17:46:35.964Z,3.50
2023-01-05T17:49:06.180Z,4.27
2023-01-05T17:51:34.977Z,3.57
2023-01-05T17:54:03.647Z,4.30
2023-01-05T17:59:03.437Z,3.30
2023-01-05T18:01:34.661Z,3.97
2023-01-05T18:04:03.729Z,4.40
2023-01-05T18:06:32.666Z,4.00
2023-01-05T18:09:01.253Z,4.40
2023-01-05T18:11:29.955Z,4.23
2023-01-05T18:13:58.600Z,4.30
2023-01-05T18:16:27.341Z,3.57
2023-01-05T18:18:57.463Z,3.83
2023-01-05T18:21:26.102Z,4.00
2023-01-05T18:23:54.900Z,5.50
2023-01-05T18:26:23.577Z,5.60
2023-01-05T18:28:54.125Z,4.73
2023-01-05T18:31:23.062Z,3.97
2023-01-05T18:33:51.727Z,4.60
2023-01-05T18:36:21.920Z,3.93
2023-01-05T18:38:50.658Z,3.43
2023-01-05T18:41:24.383Z,3.73
2023-01-05T18:43:53.093Z,3.53
2023-01-05T18:46:21.882Z,4.50
2023-01-05T18:48:51.506Z,4.53
2023-01-05T18:51:21.740Z,4.30
2023-01-05T18:53:50.517Z,4.17
2023-01-05T18:56:19.552Z,4.17
2023-01-05T18:58:48.789Z,4.03
2023-01-05T19:01:21.283Z,3.13
2023-01-05T19:03:53.895Z,2.80
2023-01-05T19:06:26.007Z,3.10
2023-01-05T19:08:54.896Z,2.70
2023-01-05T19:11:26.166Z,3.47
2023-01-05T19:13:57.767Z,3.17
2023-01-05T19:16:28.806Z,3.40
2023-01-05T19:19:01.391Z,3.33
2023-01-05T19:21:34.237Z,3.20
2023-01-05T19:24:04.563Z,5.87
2023-01-05T19:26:34.579Z,9.10
2023-01-05T19:29:06.274Z,8.87
2023-01-05T19:31:35.077Z,7.47
2023-01-05T19:34:03.819Z,7.20
2023-01-05T19:36:35.662Z,6.17
2023-01-05T19:39:08.817Z,4.47
2023-01-05T19:41:39.301Z,5.10
2023-01-05T19:44:08.543Z,5.87
2023-01-05T19:46:37.237Z,10.50
2023-01-05T19:49:05.885Z,18.67
2023-01-05T19:51:35.950Z,15.87
2023-01-05T19:54:05.945Z,13.10
2023-01-05T19:56:36.380Z,10.73
2023-01-05T19:59:08.604Z,6.57
2023-01-05T20:01:39.249Z,4.90
2023-01-05T20:04:08.430Z,4.13
2023-01-05T20:06:41.543Z,3.47
2023-01-05T20:09:13.459Z,2.90
2023-01-05T20:11:44.474Z,2.90
2023-01-05T20:14:16.700Z,2.40
2023-01-05T20:16:49.961Z,3.07
2023-01-05T20:19:19.982Z,3.03
2023-01-05T20:21:51.513Z,3.70
2023-01-05T20:24:22.902Z,3.40
2023-01-05T20:26:54.181Z,2.73
2023-01-05T20:29:24.680Z,2.60
2023-01-05T20:32:00.642Z,3.27
2023-01-05T20:34:32.370Z,3.23
2023-01-05T20:37:03.970Z,2.63
2023-01-05T20:39:33.637Z,3.20
2023-01-05T20:42:05.022Z,2.93
2023-01-05T20:44:37.133Z,3.07
2023-01-05T20:47:07.890Z,2.80
2023-01-05T20:49:38.027Z,3.10
2023-01-05T20:52:10.032Z,3.10
2023-01-05T20:54:39.467Z,2.80
2023-01-05T20:57:08.751Z,3.40
2023-01-05T20:59:40.908Z,3.70
2023-01-05T21:02:23.582Z,3.03
2023-01-05T21:04:53.142Z,4.40
2023-01-05T21:07:23.857Z,4.73
2023-01-05T21:09:53.588Z,4.50
2023-01-05T21:12:23.333Z,3.40
2023-01-05T21:14:52.015Z,3.57
2023-01-05T21:17:20.671Z,3.77
2023-01-05T21:19:50.085Z,3.00
2023-01-05T21:22:18.657Z,2.90
2023-01-05T21:24:48.633Z,2.37
2023-01-05T21:27:17.210Z,2.40
2023-01-05T21:29:45.918Z,2.30
2023-01-05T21:32:14.729Z,1.97
2023-01-05T21:34:43.370Z,1.97
2023-01-05T21:37:12.065Z,1.87
2023-01-05T21:39:43.029Z,1.90
2023-01-05T21:42:30.658Z,1.67
2023-01-05T21:44:59.348Z,1.67
2023-01-05T21:47:28.000Z,1.87
2023-01-05T21:49:57.655Z,1.50
2023-01-05T21:52:43.710Z,1.67
2023-01-05T21:55:26.225Z,1.77
2023-01-05T21:57:56.195Z,1.90
2023-01-05T22:00:26.063Z,1.60
2023-01-05T22:02:54.958Z,1.70
2023-01-05T22:05:23.993Z,1.60
2023-01-05T22:07:52.900Z,1.70
2023-01-05T22:10:21.616Z,1.60
2023-01-05T22:12:50.196Z,1.90
2023-01-05T22:15:20.179Z,1.90
2023-01-05T22:17:49.007Z,1.63
2023-01-05T22:20:17.811Z,1.90
2023-01-05T22:22:46.430Z,1.70
2023-01-05T22:25:15.509Z,1.90
2023-01-05T22:27:44.222Z,1.90
2023-01-05T22:30:14.230Z,1.80
2023-01-05T22:32:44.302Z,1.80
2023-01-05T22:35:13.111Z,1.60
2023-01-05T22:37:41.814Z,1.57
2023-01-05T22:40:12.115Z,1.87
2023-01-05T22:42:40.764Z,2.10
2023-01-05T22:45:10.647Z,1.77
2023-01-05T22:47:39.419Z,1.80
2023-01-05T22:50:10.671Z,1.73
2023-01-05T22:52:39.303Z,1.70
2023-01-05T22:55:09.424Z,1.67
2023-01-05T22:57:38.022Z,2.07
2023-01-05T23:00:09.007Z,1.87
2023-01-05T23:02:37.604Z,1.93
2023-01-05T23:05:09.554Z,1.77
2023-01-05T23:07:38.189Z,1.90
2023-01-05T23:10:08.342Z,2.07
2023-01-05T23:12:37.746Z,1.90
2023-01-05T23:15:07.639Z,1.93
2023-01-05T23:17:36.230Z,1.90
2023-01-05T23:20:05.450Z,1.70
2023-01-05T23:22:36.133Z,1.80
2023-01-05T23:25:05.651Z,1.73
2023-01-05T23:27:34.376Z,1.93
2023-01-05T23:30:03.053Z,2.27
2023-01-05T23:32:31.810Z,2.00
2023-01-05T23:35:00.411Z,2.20
2023-01-05T23:37:31.673Z,2.03
2023-01-05T23:40:01.730Z,2.07
2023-01-05T23:42:46.601Z,2.13
2023-01-05T23:45:15.918Z,2.03
2023-01-05T23:47:44.581Z,2.23
2023-01-05T23:50:13.256Z,1.90
2023-01-05T23:52:41.918Z,2.20
2023-01-05T23:55:12.184Z,1.83
2023-01-05T23:57:40.812Z,2.20
